Time;durP1;ratioP1;P1;durP2;ratioP2;P2;SDS_P1;SDS_P2;PMS_P1;PMS_P2;Temp;Humidity;BMP_temperature;BMP_pressure;BME280_temperature;BME280_humidity;BME280_pressure;Samples;Min_cycle;Max_cycle;Signal;HPM_P1;HPM_P2
2022/04/01 00:00:40;;;;;;;2.70;1.20;;;;;;;;;;4990565;28;20084;-56
2022/04/01 00:03:07;;;;;;;2.15;1.02;;;;;;;;;;4989377;28;20069;-59
2022/04/01 00:05:34;;;;;;;3.75;1.02;;;;;;;;;;4993358;28;20100;-58
2022/04/01 00:08:03;;;;;;;0.82;0.50;;;;;;;;;;4989168;28;20045;-60
2022/04/01 00:10:30;;;;;;;3.53;1.10;;;;;;;;;;4992712;28;20062;-60
2022/04/01 00:12:57;;;;;;;1.65;0.75;;;;;;;;;;4988930;28;20054;-56
2022/04/01 00:15:23;;;;;;;3.92;1.10;;;;;;;;;;4991825;28;20053;-57
2022/04/01 00:17:52;;;;;;;2.70;1.45;;;;;;;;;;4988597;28;20053;-56
2022/04/01 00:20:18;;;;;;;3.45;1.17;;;;;;;;;;4993055;28;20050;-57
2022/04/01 00:22:45;;;;;;;2.05;1.05;;;;;;;;;;4992839;28;20054;-56
2022/04/01 00:25:12;;;;;;;3.95;1.35;;;;;;;;;;4987943;28;20054;-56
2022/04/01 00:27:39;;;;;;;3.10;1.30;;;;;;;;;;4990133;28;20558;-54
2022/04/01 00:30:06;;;;;;;1.33;0.68;;;;;;;;;;4984993;28;20054;-60
2022/04/01 00:32:33;;;;;;;2.80;0.88;;;;;;;;;;4992746;28;20086;-59
2022/04/01 00:35:02;;;;;;;1.02;0.82;;;;;;;;;;4989436;28;20051;-62
2022/04/01 00:37:28;;;;;;;;;;;;;;;;;;4992283;28;20061;-55
2022/04/01 00:40:03;;;;;;;1.67;0.82;;;;;;;;;;4988914;28;19991;-63
2022/04/01 00:42:30;;;;;;;3.78;1.38;;;;;;;;;;4992016;28;20113;-59
2022/04/01 00:44:58;;;;;;;1.85;0.95;;;;;;;;;;4988968;28;20054;-56
2022/04/01 00:47:25;;;;;;;2.05;0.88;;;;;;;;;;4990733;28;20101;-61
2022/04/01 00:49:59;;;;;;;2.97;1.17;;;;;;;;;;4986645;28;20061;-50
2022/04/01 00:52:27;;;;;;;3.70;1.40;;;;;;;;;;4992732;28;20051;-60
2022/04/01 00:54:54;;;;;;;1.55;0.90;;;;;;;;;;4989074;28;20081;-62
2022/04/01 00:57:21;;;;;;;1.38;0.98;;;;;;;;;;4992876;28;20054;-58
2022/04/01 00:59:52;;;;;;;5.47;1.40;;;;;;;;;;4987609;28;20050;-56
2022/04/01 01:02:19;;;;;;;1.35;0.93;;;;;;;;;;4993587;28;20057;-57
2022/04/01 01:04:46;;;;;;;2.72;1.00;;;;;;;;;;4986590;28;20110;-58
2022/04/01 01:07:12;;;;;;;2.60;1.20;;;;;;;;;;4991963;28;20054;-64
2022/04/01 01:09:41;;;;;;;2.33;1.13;;;;;;;;;;4991528;28;20070;-56
2022/04/01 01:12:08;;;;;;;1.33;0.80;;;;;;;;;;4991346;28;20046;-65
2022/04/01 01:14:36;;;;;;;1.75;1.10;;;;;;;;;;4991162;28;20140;-57
2022/04/01 01:17:04;;;;;;;4.80;1.20;;;;;;;;;;4988454;28;20054;-65
2022/04/01 01:19:30;;;;;;;1.92;1.02;;;;;;;;;;4991215;28;20073;-56
2022/04/01 01:21:58;;;;;;;2.63;1.30;;;;;;;;;;4987216;28;20046;-66
2022/04/01 01:24:31;;;;;;;2.38;1.20;;;;;;;;;;4991461;28;20055;-52
2022/04/01 01:26:58;;;;;;;4.38;1.20;;;;;;;;;;4988245;28;20051;-62
2022/04/01 01:29:26;;;;;;;4.40;0.82;;;;;;;;;;4990929;28;20046;-58
2022/04/01 01:31:54;;;;;;;0.95;0.57;;;;;;;;;;4988198;28;20090;-53
2022/04/01 01:34:21;;;;;;;1.20;0.60;;;;;;;;;;5007636;28;20062;-59
2022/04/01 01:36:47;;;;;;;2.33;1.23;;;;;;;;;;4985733;28;20065;-52
2022/04/01 01:39:14;;;;;;;3.03;1.33;;;;;;;;;;4989246;28;20732;-58
2022/04/01 01:41:44;;;;;;;0.85;0.55;;;;;;;;;;4984688;28;20086;-56
2022/04/01 01:44:11;;;;;;;5.07;0.73;;;;;;;;;;4988255;28;20073;-64
2022/04/01 01:46:38;;;;;;;1.63;0.90;;;;;;;;;;4986320;28;20050;-62
2022/04/01 01:49:05;;;;;;;2.53;1.02;;;;;;;;;;4991908;28;20054;-51
2022/04/01 01:57:02;;;;;;;2.92;1.30;;;;;;;;;;4987207;28;20053;-64
2022/04/01 01:59:29;;;;;;;2.03;1.17;;;;;;;;;;4991049;28;20150;-64
2022/04/01 02:01:56;;;;;;;1.70;0.98;;;;;;;;;;4989095;28;20042;-65
2022/04/01 02:04:23;;;;;;;2.40;1.20;;;;;;;;;;4992509;28;20542;-65
2022/04/01 02:06:50;;;;;;;2.60;1.17;;;;;;;;;;4991685;28;20047;-65
2022/04/01 02:09:16;;;;;;;1.55;0.82;;;;;;;;;;4988726;28;20061;-64
2022/04/01 02:11:43;;;;;;;1.50;0.82;;;;;;;;;;4992137;28;20054;-65
2022/04/01 02:14:11;;;;;;;2.75;1.20;;;;;;;;;;4984418;28;20050;-61
2022/04/01 02:16:37;;;;;;;2.58;1.00;;;;;;;;;;4975553;28;20061;-62
2022/04/01 02:19:04;;;;;;;2.60;1.10;;;;;;;;;;4986275;28;20046;-59
2022/04/01 02:21:31;;;;;;;1.48;1.00;;;;;;;;;;4994118;28;20046;-63
2022/04/01 02:23:57;;;;;;;2.95;1.15;;;;;;;;;;4990437;28;20053;-65
2022/04/01 02:26:24;;;;;;;1.55;0.88;;;;;;;;;;4994435;28;20050;-63
2022/04/01 02:28:54;;;;;;;1.95;1.08;;;;;;;;;;4989043;28;20054;-65
2022/04/01 02:31:22;;;;;;;2.08;1.05;;;;;;;;;;4974025;28;20091;-65
2022/04/01 02:33:49;;;;;;;1.38;0.80;;;;;;;;;;4977829;28;20082;-61
2022/04/01 02:36:15;;;;;;;1.80;0.80;;;;;;;;;;4993045;28;20054;-65
2022/04/01 02:38:43;;;;;;;2.17;1.13;;;;;;;;;;4985558;28;20073;-65
2022/04/01 02:41:11;;;;;;;2.00;1.08;;;;;;;;;;4974658;28;20050;-61
2022/04/01 02:43:38;;;;;;;1.90;0.90;;;;;;;;;;4970692;28;20073;-56
2022/04/01 02:46:05;;;;;;;1.85;1.20;;;;;;;;;;5005800;28;20528;-59
2022/04/01 02:48:33;;;;;;;2.97;0.80;;;;;;;;;;4971551;28;20050;-60
2022/04/01 02:51:00;;;;;;;3.75;1.38;;;;;;;;;;4972964;28;20054;-58
2022/04/01 02:53:26;;;;;;;2.10;1.05;;;;;;;;;;4973585;28;20054;-55
2022/04/01 02:55:53;;;;;;;1.23;0.52;;;;;;;;;;4969260;28;20552;-55
2022/04/01 02:58:21;;;;;;;3.58;0.90;;;;;;;;;;4973036;28;20065;-63
2022/04/01 03:00:48;;;;;;;1.10;0.52;;;;;;;;;;4984473;28;20133;-53
2022/04/01 03:03:31;;;;;;;3.33;1.08;;;;;;;;;;4992810;28;20106;-64
2022/04/01 03:05:59;;;;;;;2.35;1.35;;;;;;;;;;4973844;28;20054;-51
2022/04/01 03:08:27;;;;;;;2.80;1.10;;;;;;;;;;4989542;28;20046;-52
2022/04/01 03:10:55;;;;;;;2.65;1.25;;;;;;;;;;4984442;28;20038;-61
2022/04/01 03:13:21;;;;;;;1.57;0.97;;;;;;;;;;4989973;28;20099;-55
2022/04/01 03:15:48;;;;;;;2.47;1.25;;;;;;;;;;4988376;28;20054;-54
2022/04/01 03:18:21;;;;;;;2.72;0.95;;;;;;;;;;4990892;28;20041;-58
2022/04/01 03:20:47;;;;;;;4.38;1.20;;;;;;;;;;4989087;28;20061;-52
2022/04/01 03:23:15;;;;;;;1.88;1.00;;;;;;;;;;4993304;28;20054;-65
2022/04/01 03:25:42;;;;;;;1.27;0.80;;;;;;;;;;4987990;28;20053;-58
2022/04/01 03:28:09;;;;;;;1.15;0.80;;;;;;;;;;4991584;28;20050;-59
2022/04/01 03:30:35;;;;;;;2.50;1.17;;;;;;;;;;4985785;28;20062;-59
2022/04/01 03:33:02;;;;;;;4.32;1.20;;;;;;;;;;4973025;28;20053;-58
2022/04/01 03:35:29;;;;;;;2.28;1.15;;;;;;;;;;4989609;28;20053;-56
2022/04/01 03:38:10;;;;;;;1.33;0.85;;;;;;;;;;4992377;28;20058;-60
2022/04/01 03:40:41;;;;;;;2.80;1.45;;;;;;;;;;4992363;28;20057;-49
2022/04/01 03:43:08;;;;;;;3.33;1.42;;;;;;;;;;4992294;28;20049;-60
2022/04/01 03:45:34;;;;;;;6.07;1.40;;;;;;;;;;4990431;28;20049;-60
2022/04/01 03:48:05;;;;;;;1.75;1.00;;;;;;;;;;4990702;28;20057;-51
2022/04/01 03:50:34;;;;;;;1.42;0.77;;;;;;;;;;4996892;28;20073;-57
2022/04/01 03:53:02;;;;;;;2.13;1.10;;;;;;;;;;4993394;28;20046;-53
2022/04/01 03:55:31;;;;;;;2.88;0.85;;;;;;;;;;4997188;28;20053;-53
2022/04/01 03:58:09;;;;;;;;;;;;;;;;;;4992130;28;20060;-52
2022/04/01 04:00:38;;;;;;;2.13;1.00;;;;;;;;;;4995436;28;19949;-57
2022/04/01 04:03:07;;;;;;;2.92;1.20;;;;;;;;;;4993612;28;20137;-56
2022/04/01 04:05:33;;;;;;;;;;;;;;;;;;4998013;28;20096;-57
2022/04/01 04:08:02;;;;;;;2.67;1.30;;;;;;;;;;4984258;28;19925;-57
2022/04/01 04:10:30;;;;;;;2.95;1.25;;;;;;;;;;4978082;28;20085;-52
2022/04/01 04:12:57;;;;;;;1.88;1.02;;;;;;;;;;4974767;28;20168;-55
2022/04/01 04:15:26;;;;;;;2.13;1.10;;;;;;;;;;4993603;28;20081;-54
2022/04/01 04:18:09;;;;;;;1.88;1.13;;;;;;;;;;4988076;28;20073;-56
2022/04/01 04:20:39;;;;;;;0.60;0.40;;;;;;;;;;4977978;28;20118;-58
2022/04/01 04:23:08;;;;;;;2.53;0.98;;;;;;;;;;4981435;28;20046;-60
2022/04/01 04:25:36;;;;;;;1.92;1.23;;;;;;;;;;4997181;28;20104;-59
2022/04/01 04:28:12;;;;;;;1.35;0.73;;;;;;;;;;4973281;28;20157;-59
2022/04/01 04:30:45;;;;;;;2.53;0.90;;;;;;;;;;4988028;28;20052;-55
2022/04/01 04:33:16;;;;;;;2.67;1.15;;;;;;;;;;4993792;28;20053;-52
2022/04/01 04:35:44;;;;;;;2.15;1.02;;;;;;;;;;4997555;28;20119;-55
2022/04/01 04:41:02;;;;;;;2.65;1.17;;;;;;;;;;5016233;28;20049;-49
2022/04/01 04:43:30;;;;;;;1.70;1.00;;;;;;;;;;5012073;28;20054;-57
2022/04/01 04:45:58;;;;;;;1.20;0.82;;;;;;;;;;5015396;28;20080;-58
2022/04/01 04:48:33;;;;;;;5.32;1.50;;;;;;;;;;5012224;28;20056;-53
2022/04/01 04:51:02;;;;;;;1.67;0.70;;;;;;;;;;4996810;28;20053;-55
2022/04/01 04:53:30;;;;;;;0.90;0.70;;;;;;;;;;4994982;28;20054;-55
2022/04/01 04:55:59;;;;;;;1.77;0.80;;;;;;;;;;5012142;28;20049;-58
2022/04/01 04:58:31;;;;;;;2.13;1.10;;;;;;;;;;4996593;28;20301;-61
2022/04/01 05:01:01;;;;;;;1.60;1.08;;;;;;;;;;4992200;28;20124;-58
2022/04/01 05:03:34;;;;;;;4.32;1.33;;;;;;;;;;4996396;28;20080;-61
2022/04/01 05:06:03;;;;;;;1.58;0.80;;;;;;;;;;5003901;28;20050;-57
2022/04/01 05:08:46;;;;;;;4.25;1.25;;;;;;;;;;4993152;28;20060;-56
2022/04/01 05:11:17;;;;;;;2.42;1.17;;;;;;;;;;5003832;28;20058;-52
2022/04/01 05:13:49;;;;;;;2.25;1.02;;;;;;;;;;4993847;28;20077;-54
2022/04/01 05:16:23;;;;;;;3.25;1.52;;;;;;;;;;4947922;28;20051;-61
2022/04/01 05:18:52;;;;;;;1.90;0.70;;;;;;;;;;4969531;28;20054;-61
2022/04/01 05:21:20;;;;;;;;;;;;;;;;;;4948434;28;20079;-55
2022/04/01 05:23:54;;;;;;;3.40;1.23;;;;;;;;;;4966427;28;19926;-62
2022/04/01 05:26:38;;;;;;;0.98;0.57;;;;;;;;;;4948868;28;20283;-56
2022/04/01 05:29:13;;;;;;;1.80;0.93;;;;;;;;;;4960403;28;20098;-56
2022/04/01 05:31:46;;;;;;;2.90;1.20;;;;;;;;;;4967843;28;20706;-51
2022/04/01 05:34:19;;;;;;;2.08;0.93;;;;;;;;;;4987918;28;20113;-54
2022/04/01 05:36:47;;;;;;;2.45;1.15;;;;;;;;;;4967151;28;20088;-54
2022/04/01 05:39:15;;;;;;;2.25;0.90;;;;;;;;;;4986852;28;20091;-58
2022/04/01 05:41:42;;;;;;;3.42;1.10;;;;;;;;;;4967666;28;20057;-57
2022/04/01 05:44:10;;;;;;;5.95;1.38;;;;;;;;;;4987368;28;20054;-51
2022/04/01 05:46:39;;;;;;;3.40;0.80;;;;;;;;;;4968336;28;20154;-56
2022/04/01 05:49:13;;;;;;;4.38;1.17;;;;;;;;;;4971447;28;20105;-53
2022/04/01 05:51:41;;;;;;;1.40;0.85;;;;;;;;;;4967962;28;20101;-51
2022/04/01 05:54:08;;;;;;;1.35;0.70;;;;;;;;;;4972083;28;20051;-52
2022/04/01 05:56:39;;;;;;;4.65;1.05;;;;;;;;;;4963882;28;20078;-57
2022/04/01 05:59:11;;;;;;;1.85;0.98;;;;;;;;;;4953419;28;20089;-55
2022/04/01 06:01:42;;;;;;;4.47;1.10;;;;;;;;;;4953928;28;20069;-51
2022/04/01 06:04:25;;;;;;;2.35;0.95;;;;;;;;;;4969112;28;20039;-58
2022/04/01 06:06:55;;;;;;;2.05;0.90;;;;;;;;;;4968168;28;20043;-53
2022/04/01 06:09:30;;;;;;;0.80;0.70;;;;;;;;;;4970803;28;20089;-59
2022/04/01 06:12:01;;;;;;;3.60;1.33;;;;;;;;;;4966362;28;20054;-55
2022/04/01 06:14:35;;;;;;;2.05;0.70;;;;;;;;;;4998244;28;20051;-53
2022/04/01 06:17:04;;;;;;;1.90;1.00;;;;;;;;;;4971140;28;20100;-54
2022/04/01 06:19:41;;;;;;;1.77;0.88;;;;;;;;;;4990898;28;29066;-54
2022/04/01 06:22:12;;;;;;;10.63;1.37;;;;;;;;;;4985643;28;20061;-57
2022/04/01 06:24:45;;;;;;;2.70;1.20;;;;;;;;;;4970538;28;20054;-57
2022/04/01 06:27:15;;;;;;;2.65;1.00;;;;;;;;;;4968359;28;20054;-57
2022/04/01 06:29:45;;;;;;;6.45;1.40;;;;;;;;;;4978801;28;20054;-60
2022/04/01 06:32:13;;;;;;;2.28;0.82;;;;;;;;;;4991180;28;20054;-54
2022/04/01 06:34:55;;;;;;;1.90;0.88;;;;;;;;;;4985829;28;20060;-54
2022/04/01 06:37:23;;;;;;;2.15;0.93;;;;;;;;;;4987896;28;20058;-59
2022/04/01 06:39:58;;;;;;;1.23;0.80;;;;;;;;;;4986567;28;20133;-61
2022/04/01 06:42:28;;;;;;;1.25;0.85;;;;;;;;;;4977571;28;20054;-57
2022/04/01 06:44:54;;;;;;;0.90;0.57;;;;;;;;;;4985286;28;20054;-59
2022/04/01 06:47:21;;;;;;;3.13;1.25;;;;;;;;;;4990830;28;20054;-63
2022/04/01 06:49:52;;;;;;;0.57;0.35;;;;;;;;;;4972800;28;20055;-54
2022/04/01 06:52:19;;;;;;;2.75;1.10;;;;;;;;;;4971958;28;20082;-54
2022/04/01 06:54:46;;;;;;;2.15;1.00;;;;;;;;;;4969183;28;20054;-55
2022/04/01 06:57:14;;;;;;;2.55;0.90;;;;;;;;;;4971632;28;20055;-54
2022/04/01 06:59:45;;;;;;;1.42;0.60;;;;;;;;;;4968030;28;20043;-62
2022/04/01 07:02:12;;;;;;;1.10;0.55;;;;;;;;;;4974462;28;20042;-55
2022/04/01 07:04:38;;;;;;;3.20;1.20;;;;;;;;;;4979092;28;20075;-52
2022/04/01 07:07:05;;;;;;;2.28;1.00;;;;;;;;;;4987675;28;20109;-53
2022/04/01 07:09:32;;;;;;;3.55;1.30;;;;;;;;;;4983964;28;20129;-55
2022/04/01 07:12:01;;;;;;;2.03;0.80;;;;;;;;;;4971109;28;20051;-61
2022/04/01 07:14:28;;;;;;;;;;;;;;;;;;4976352;28;20057;-60
2022/04/01 07:16:56;;;;;;;1.02;0.75;;;;;;;;;;4988803;28;19972;-59
2022/04/01 07:19:23;;;;;;;1.23;0.68;;;;;;;;;;4984456;28;20054;-62
2022/04/01 07:21:49;;;;;;;1.23;0.65;;;;;;;;;;4988467;28;20050;-56
2022/04/01 07:24:16;;;;;;;1.77;0.88;;;;;;;;;;4975177;28;20057;-61
2022/04/01 07:26:44;;;;;;;3.72;0.93;;;;;;;;;;4985383;28;20050;-55
2022/04/01 07:29:22;;;;;;;1.02;0.52;;;;;;;;;;4990259;28;20046;-54
2022/04/01 07:34:36;;;;;;;2.17;1.17;;;;;;;;;;4971211;28;20066;-56
2022/04/01 07:37:03;;;;;;;4.15;1.20;;;;;;;;;;5018607;28;20054;-51
2022/04/01 07:39:33;;;;;;;1.85;0.85;;;;;;;;;;4989539;28;20156;-50
2022/04/01 07:42:00;;;;;;;2.38;1.10;;;;;;;;;;4986329;28;20058;-57
2022/04/01 07:44:27;;;;;;;5.80;1.45;;;;;;;;;;4989004;28;20133;-58
2022/04/01 07:46:55;;;;;;;3.80;1.05;;;;;;;;;;4987093;28;20054;-56
2022/04/01 07:49:22;;;;;;;2.50;1.10;;;;;;;;;;4990114;28;20065;-57
2022/04/01 07:51:50;;;;;;;5.53;0.95;;;;;;;;;;4985580;28;20050;-53
2022/04/01 07:54:16;;;;;;;1.83;1.05;;;;;;;;;;4989739;28;20081;-55
2022/04/01 07:56:43;;;;;;;2.17;0.93;;;;;;;;;;4986970;28;20050;-55
2022/04/01 07:59:14;;;;;;;2.20;0.80;;;;;;;;;;4990684;28;20046;-62
2022/04/01 08:01:40;;;;;;;1.98;0.90;;;;;;;;;;4986540;28;20046;-60
2022/04/01 08:04:07;;;;;;;1.60;0.90;;;;;;;;;;4986732;28;20054;-56
2022/04/01 08:06:34;;;;;;;1.30;0.75;;;;;;;;;;5002790;28;20058;-56
2022/04/01 08:09:02;;;;;;;1.65;0.90;;;;;;;;;;4988504;28;20062;-56
2022/04/01 08:11:29;;;;;;;1.50;0.70;;;;;;;;;;4985728;28;20136;-54
2022/04/01 08:13:56;;;;;;;1.67;0.80;;;;;;;;;;4985246;28;20079;-53
2022/04/01 08:16:23;;;;;;;1.33;0.82;;;;;;;;;;4930332;28;20107;-59
2022/04/01 08:18:51;;;;;;;1.63;0.90;;;;;;;;;;4950390;29;20059;-52
2022/04/01 08:21:18;;;;;;;5.28;1.08;;;;;;;;;;4951154;29;20059;-53
2022/04/01 08:23:44;;;;;;;2.58;1.00;;;;;;;;;;4932041;28;20115;-53
2022/04/01 08:26:13;;;;;;;2.33;0.77;;;;;;;;;;4947882;28;20107;-52
2022/04/01 08:28:43;;;;;;;1.83;0.70;;;;;;;;;;4930114;28;20087;-53
2022/04/01 08:31:10;;;;;;;2.03;1.02;;;;;;;;;;4951432;28;20102;-51
2022/04/01 08:33:36;;;;;;;2.22;0.88;;;;;;;;;;4947655;28;20138;-51
2022/04/01 08:36:03;;;;;;;1.10;0.70;;;;;;;;;;4953776;28;20114;-56
2022/04/01 08:38:32;;;;;;;2.20;0.80;;;;;;;;;;4950820;28;20055;-57
2022/04/01 08:40:59;;;;;;;2.92;0.90;;;;;;;;;;4955254;29;20138;-54
2022/04/01 08:43:28;;;;;;;1.88;0.90;;;;;;;;;;4951802;28;20091;-54
2022/04/01 08:45:56;;;;;;;3.80;1.20;;;;;;;;;;4954273;28;20070;-51
2022/04/01 08:48:23;;;;;;;2.28;0.90;;;;;;;;;;4945806;28;20052;-56
2022/04/01 08:50:50;;;;;;;0.85;0.60;;;;;;;;;;4951023;28;20055;-56
2022/04/01 08:53:17;;;;;;;1.38;0.77;;;;;;;;;;4936377;28;20398;-60
2022/04/01 08:55:46;;;;;;;2.00;0.80;;;;;;;;;;4954154;28;20059;-59
2022/04/01 08:58:23;;;;;;;3.55;0.82;;;;;;;;;;4950155;28;20055;-57
2022/04/01 09:00:51;;;;;;;2.17;0.75;;;;;;;;;;4954337;28;20051;-57
2022/04/01 09:03:20;;;;;;;1.75;0.82;;;;;;;;;;4948062;28;20052;-59
2022/04/01 09:05:46;;;;;;;;;;;;;;;;;;4941694;28;20062;-61
2022/04/01 09:08:15;;;;;;;4.68;0.73;;;;;;;;;;4968428;28;19930;-56
2022/04/01 09:10:56;;;;;;;1.00;0.63;;;;;;;;;;4947907;28;20146;-56
2022/04/01 09:13:23;;;;;;;3.53;0.93;;;;;;;;;;4968269;28;20134;-60
2022/04/01 09:15:51;;;;;;;0.95;0.52;;;;;;;;;;4977816;28;20050;-58
2022/04/01 09:18:33;;;;;;;5.97;1.08;;;;;;;;;;4990951;28;20108;-53
2022/04/01 09:21:00;;;;;;;0.75;0.55;;;;;;;;;;4981730;28;20057;-53
2022/04/01 09:23:27;;;;;;;4.68;0.88;;;;;;;;;;5009203;28;20059;-56
2022/04/01 09:25:55;;;;;;;1.50;1.00;;;;;;;;;;4987846;28;20092;-54
2022/04/01 09:28:33;;;;;;;1.67;0.80;;;;;;;;;;4991999;28;20065;-59
2022/04/01 09:31:03;;;;;;;2.25;1.00;;;;;;;;;;4985249;28;20126;-52
2022/04/01 09:33:33;;;;;;;3.17;0.80;;;;;;;;;;4992571;28;20054;-54
2022/04/01 09:36:03;;;;;;;1.35;0.63;;;;;;;;;;4988061;28;20050;-58
2022/04/01 09:38:30;;;;;;;2.95;1.00;;;;;;;;;;4992731;28;20057;-50
2022/04/01 09:41:02;;;;;;;0.85;0.60;;;;;;;;;;4988610;28;20054;-55
2022/04/01 09:43:28;;;;;;;4.72;0.90;;;;;;;;;;4992628;28;20046;-53
2022/04/01 09:45:55;;;;;;;0.22;0.20;;;;;;;;;;4980506;28;20055;-54
2022/04/01 09:48:39;;;;;;;2.88;0.90;;;;;;;;;;4972463;28;20059;-56
2022/04/01 09:51:05;;;;;;;1.52;0.80;;;;;;;;;;4978474;28;20050;-56
2022/04/01 09:53:35;;;;;;;4.72;0.82;;;;;;;;;;5009055;28;20050;-57
2022/04/01 09:56:01;;;;;;;3.25;0.98;;;;;;;;;;4983590;28;20047;-55
2022/04/01 09:58:28;;;;;;;0.52;0.30;;;;;;;;;;4972704;28;20051;-58
2022/04/01 10:00:56;;;;;;;1.55;0.88;;;;;;;;;;4957100;28;20046;-55
2022/04/01 10:03:23;;;;;;;3.40;1.10;;;;;;;;;;4991918;28;20050;-56
2022/04/01 10:05:52;;;;;;;3.65;1.00;;;;;;;;;;5021091;28;20054;-58
2022/04/01 10:08:20;;;;;;;2.38;1.17;;;;;;;;;;4991755;28;20058;-53
2022/04/01 10:10:47;;;;;;;4.32;1.00;;;;;;;;;;4990615;28;20164;-53
2022/04/01 10:13:16;;;;;;;3.50;1.02;;;;;;;;;;4990161;28;20054;-55
2022/04/01 10:15:43;;;;;;;4.13;1.23;;;;;;;;;;4991162;28;20054;-61
2022/04/01 10:18:14;;;;;;;3.13;1.05;;;;;;;;;;4987534;28;20054;-53
2022/04/01 10:20:40;;;;;;;2.80;1.45;;;;;;;;;;4991650;28;20062;-60
2022/04/01 10:23:09;;;;;;;3.03;1.33;;;;;;;;;;5003763;28;20053;-60
2022/04/01 10:25:45;;;;;;;0.85;0.50;;;;;;;;;;5007190;28;20124;-56
2022/04/01 10:28:19;;;;;;;1.13;0.63;;;;;;;;;;4972690;28;20493;-54
2022/04/01 10:30:54;;;;;;;2.08;1.05;;;;;;;;;;4987881;28;20543;-54
2022/04/01 10:33:24;;;;;;;3.83;1.50;;;;;;;;;;4987428;28;20137;-56
2022/04/01 10:35:51;;;;;;;2.30;1.17;;;;;;;;;;4990683;28;20054;-55
2022/04/01 10:38:21;;;;;;;2.80;1.40;;;;;;;;;;5004053;28;20060;-58
2022/04/01 10:40:50;;;;;;;2.78;1.13;;;;;;;;;;5007601;28;20053;-51
2022/04/01 10:43:18;;;;;;;3.28;1.42;;;;;;;;;;4977795;28;20085;-60
2022/04/01 10:45:57;;;;;;;3.58;1.02;;;;;;;;;;4970680;28;20047;-54
2022/04/01 10:53:59;;;;;;;4.47;1.80;;;;;;;;;;4975078;28;19978;-57
2022/04/01 10:56:25;;;;;;;;;;;;;;;;;;5004053;28;20046;-54
2022/04/01 10:59:02;;;;;;;7.35;2.45;;;;;;;;;;4976707;28;19928;-52
2022/04/01 11:01:28;;;;;;;4.53;1.83;;;;;;;;;;4989627;28;20057;-58
2022/04/01 11:04:00;;;;;;;4.20;1.25;;;;;;;;;;4981288;28;20061;-53
2022/04/01 11:06:27;;;;;;;3.20;1.35;;;;;;;;;;4999861;28;20109;-53
2022/04/01 11:09:04;;;;;;;5.63;2.35;;;;;;;;;;4986078;28;20058;-57
2022/04/01 11:11:31;;;;;;;4.20;1.40;;;;;;;;;;4988912;28;20108;-55
2022/04/01 11:14:04;;;;;;;2.80;1.10;;;;;;;;;;4980393;28;20062;-53
2022/04/01 11:16:45;;;;;;;2.63;1.30;;;;;;;;;;4971184;28;20112;-54
2022/04/01 11:19:25;;;;;;;2.08;1.00;;;;;;;;;;4977400;28;20049;-55
2022/04/01 11:21:52;;;;;;;3.17;1.30;;;;;;;;;;4990030;28;20132;-54
2022/04/01 11:24:35;;;;;;;4.32;1.70;;;;;;;;;;4990326;28;20050;-56
2022/04/01 11:27:08;;;;;;;2.90;1.25;;;;;;;;;;4993801;28;20495;-57
2022/04/01 11:29:57;;;;;;;3.13;1.40;;;;;;;;;;4989002;28;20054;-57
2022/04/01 11:32:27;;;;;;;4.47;1.45;;;;;;;;;;4928080;29;20100;-56
2022/04/01 11:34:55;;;;;;;3.95;1.50;;;;;;;;;;4979539;28;20114;-56
2022/04/01 11:37:22;;;;;;;2.67;0.93;;;;;;;;;;4993460;28;20041;-55
2022/04/01 11:40:06;;;;;;;3.90;1.80;;;;;;;;;;4989965;28;20060;-56
2022/04/01 11:42:33;;;;;;;4.90;1.95;;;;;;;;;;4993759;28;20042;-53
2022/04/01 11:45:00;;;;;;;3.20;1.48;;;;;;;;;;4990497;28;20092;-54
2022/04/01 11:47:32;;;;;;;4.32;2.10;;;;;;;;;;4993617;28;20050;-54
2022/04/01 11:50:09;;;;;;;4.50;2.00;;;;;;;;;;4991693;28;20066;-52
2022/04/01 11:52:36;;;;;;;7.03;1.20;;;;;;;;;;4995407;28;20050;-54
2022/04/01 11:55:10;;;;;;;3.05;1.25;;;;;;;;;;5008021;28;20081;-55
2022/04/01 11:57:37;;;;;;;5.13;2.20;;;;;;;;;;5011268;28;20053;-58
2022/04/01 12:00:09;;;;;;;5.05;1.60;;;;;;;;;;4992281;28;20045;-52
2022/04/01 12:02:36;;;;;;;5.75;2.17;;;;;;;;;;4994029;28;20042;-53
2022/04/01 12:05:03;;;;;;;5.13;2.17;;;;;;;;;;4993559;28;20065;-55
2022/04/01 12:10:22;;;;;;;4.93;2.08;;;;;;;;;;4957920;28;20551;-49
2022/04/01 12:12:55;;;;;;;4.45;2.05;;;;;;;;;;4956292;28;20075;-49
2022/04/01 12:15:33;;;;;;;3.47;1.58;;;;;;;;;;4981177;28;20143;-58
2022/04/01 12:18:00;;;;;;;5.38;2.35;;;;;;;;;;4983770;28;20093;-53
2022/04/01 12:20:28;;;;;;;7.30;2.70;;;;;;;;;;4976730;28;20062;-59
2022/04/01 12:22:56;;;;;;;1.52;0.80;;;;;;;;;;4999734;28;20077;-53
2022/04/01 12:25:24;;;;;;;6.40;1.90;;;;;;;;;;5016434;28;20103;-55
2022/04/01 12:27:52;;;;;;;3.72;1.63;;;;;;;;;;4997882;28;20114;-52
2022/04/01 12:30:27;;;;;;;6.60;2.40;;;;;;;;;;4983121;28;20136;-57
2022/04/01 12:32:54;;;;;;;4.53;2.17;;;;;;;;;;4985837;28;20545;-56
2022/04/01 12:35:22;;;;;;;5.45;2.40;;;;;;;;;;4995330;28;20113;-56
2022/04/01 12:38:02;;;;;;;6.32;1.85;;;;;;;;;;4991802;28;20046;-59
2022/04/01 12:40:33;;;;;;;4.95;2.15;;;;;;;;;;5012710;28;20062;-56
2022/04/01 12:43:00;;;;;;;5.55;1.92;;;;;;;;;;5002536;28;20053;-63
2022/04/01 12:45:26;;;;;;;4.85;1.98;;;;;;;;;;5016288;28;20045;-59
2022/04/01 12:47:54;;;;;;;7.93;2.75;;;;;;;;;;5020694;28;20042;-54
2022/04/01 12:50:37;;;;;;;4.55;2.20;;;;;;;;;;5012719;28;20092;-58
2022/04/01 12:53:10;;;;;;;5.80;2.20;;;;;;;;;;4991690;28;20054;-53
2022/04/01 12:55:38;;;;;;;5.28;2.53;;;;;;;;;;4994161;28;20045;-54
2022/04/01 12:58:16;;;;;;;4.95;1.70;;;;;;;;;;5001154;28;20181;-53
2022/04/01 13:00:43;;;;;;;7.50;2.75;;;;;;;;;;4996327;28;20200;-62
2022/04/01 13:03:09;;;;;;;9.45;2.92;;;;;;;;;;4987041;28;20065;-55
2022/04/01 13:05:37;;;;;;;7.82;2.40;;;;;;;;;;4976321;28;20058;-56
2022/04/01 13:08:07;;;;;;;6.03;2.58;;;;;;;;;;4973174;28;20133;-58
2022/04/01 13:10:34;;;;;;;4.13;1.77;;;;;;;;;;4991630;28;20050;-57
2022/04/01 13:13:02;;;;;;;3.10;1.50;;;;;;;;;;4989380;28;20073;-59
2022/04/01 13:15:28;;;;;;;6.05;2.47;;;;;;;;;;4977865;28;20061;-56
2022/04/01 13:17:57;;;;;;;2.08;0.55;;;;;;;;;;4975588;28;20050;-61
2022/04/01 13:20:25;;;;;;;4.72;1.92;;;;;;;;;;4985168;28;20046;-55
2022/04/01 13:22:52;;;;;;;7.13;1.93;;;;;;;;;;4979195;28;20050;-57
2022/04/01 13:25:19;;;;;;;4.20;1.95;;;;;;;;;;4993362;28;20084;-64
2022/04/01 13:27:48;;;;;;;6.65;2.22;;;;;;;;;;4996126;28;20104;-64
2022/04/01 13:30:17;;;;;;;3.92;1.60;;;;;;;;;;4992149;28;20053;-61
2022/04/01 13:32:44;;;;;;;6.80;1.63;;;;;;;;;;4979071;28;20050;-62
2022/04/01 13:35:11;;;;;;;6.57;2.22;;;;;;;;;;4995987;28;20057;-55
2022/04/01 13:37:38;;;;;;;8.45;2.00;;;;;;;;;;5014979;28;20139;-57
2022/04/01 13:40:05;;;;;;;6.47;1.90;;;;;;;;;;5002028;28;20119;-57
2022/04/01 13:42:32;;;;;;;2.00;1.15;;;;;;;;;;5010088;28;20092;-53
2022/04/01 13:44:58;;;;;;;2.60;1.20;;;;;;;;;;5014270;28;20141;-49
2022/04/01 13:47:28;;;;;;;3.05;1.30;;;;;;;;;;5013825;28;20053;-56
2022/04/01 13:49:55;;;;;;;2.58;1.40;;;;;;;;;;4989345;28;20049;-55
2022/04/01 13:52:22;;;;;;;4.10;1.33;;;;;;;;;;4994666;28;20111;-55
2022/04/01 13:54:49;;;;;;;4.82;1.35;;;;;;;;;;5008522;28;20064;-58
2022/04/01 13:57:15;;;;;;;2.17;1.17;;;;;;;;;;4995415;28;20046;-58
2022/04/01 13:59:44;;;;;;;3.85;1.45;;;;;;;;;;4991748;28;20053;-63
2022/04/01 14:02:12;;;;;;;4.32;1.50;;;;;;;;;;4994171;28;20060;-53
2022/04/01 14:04:40;;;;;;;7.85;1.60;;;;;;;;;;4990324;28;20061;-56
2022/04/01 14:07:08;;;;;;;2.70;1.38;;;;;;;;;;4996318;28;20061;-56
2022/04/01 14:09:37;;;;;;;2.28;1.17;;;;;;;;;;4993430;28;20514;-53
2022/04/01 14:12:04;;;;;;;2.13;1.00;;;;;;;;;;5007745;28;20104;-57
2022/04/01 14:14:31;;;;;;;4.85;1.30;;;;;;;;;;5007291;28;20054;-53
2022/04/01 14:16:58;;;;;;;3.03;1.20;;;;;;;;;;5004196;28;20054;-58
2022/04/01 14:19:26;;;;;;;2.75;1.27;;;;;;;;;;4990901;28;20086;-57
2022/04/01 14:21:54;;;;;;;0.82;0.70;;;;;;;;;;4988387;28;20053;-55
2022/04/01 14:24:21;;;;;;;5.03;1.20;;;;;;;;;;4990996;28;20158;-55
2022/04/01 14:26:48;;;;;;;2.88;1.00;;;;;;;;;;4996292;28;20308;-59
2022/04/01 14:32:05;;;;;;;1.85;0.75;;;;;;;;;;4994942;28;20136;-57
2022/04/01 14:34:34;;;;;;;2.60;1.20;;;;;;;;;;4971090;28;20078;-53
2022/04/01 14:37:02;;;;;;;1.60;0.73;;;;;;;;;;4974509;28;20049;-61
2022/04/01 14:39:29;;;;;;;2.27;0.87;;;;;;;;;;4988275;28;20054;-50
2022/04/01 14:41:56;;;;;;;2.15;0.82;;;;;;;;;;4987963;28;20081;-59
2022/04/01 14:44:23;;;;;;;3.25;1.10;;;;;;;;;;4991590;28;20089;-52
2022/04/01 14:46:50;;;;;;;1.95;0.95;;;;;;;;;;4987796;28;20269;-60
2022/04/01 14:49:17;;;;;;;2.55;1.10;;;;;;;;;;4990817;28;20046;-52
2022/04/01 14:51:43;;;;;;;2.58;1.00;;;;;;;;;;5021734;28;20046;-56
2022/04/01 14:54:12;;;;;;;5.07;1.25;;;;;;;;;;4989725;28;20109;-61
2022/04/01 14:56:39;;;;;;;1.25;0.80;;;;;;;;;;4990805;28;20046;-58
2022/04/01 14:59:07;;;;;;;1.30;0.70;;;;;;;;;;4985970;28;20046;-55
2022/04/01 15:01:34;;;;;;;3.80;1.38;;;;;;;;;;4967735;28;20192;-57
2022/04/01 15:04:01;;;;;;;3.83;1.00;;;;;;;;;;4987675;28;20050;-62
2022/04/01 15:06:28;;;;;;;2.15;1.13;;;;;;;;;;5007693;28;20084;-62
2022/04/01 15:08:59;;;;;;;6.50;1.10;;;;;;;;;;4999637;28;20092;-52
2022/04/01 15:11:28;;;;;;;2.13;0.82;;;;;;;;;;5008125;28;20050;-50
2022/04/01 15:13:54;;;;;;;1.92;1.00;;;;;;;;;;5010560;28;20090;-52
2022/04/01 15:16:21;;;;;;;2.35;0.77;;;;;;;;;;4969673;28;20050;-53
2022/04/01 15:18:47;;;;;;;3.20;1.10;;;;;;;;;;4964198;28;20054;-55